Time;durP1;ratioP1;P1;durP2;ratioP2;P2;SDS_P1;SDS_P2;PMS_P1;PMS_P2;Temp;Humidity;BMP_temperature;BMP_pressure;BME280_temperature;BME280_humidity;BME280_pressure;Samples;Min_cycle;Max_cycle;Signal;HPM_P1;HPM_P2
2023/07/19 00:00:32;;;;;;;5.43;4.82;;;;;;;24.41;57.64;95040.56;6099696;23;20164;-69
2023/07/19 00:02:58;;;;;;;5.32;4.78;;;;;;;24.34;57.97;95040.72;6099465;23;20196;-69
2023/07/19 00:05:28;;;;;;;4.95;4.53;;;;;;;24.33;57.95;95042.75;6099233;23;20164;-69
2023/07/19 00:07:58;;;;;;;5.40;4.90;;;;;;;24.33;58.04;95039.94;6099548;23;20157;-69
2023/07/19 00:10:28;;;;;;;5.40;4.90;;;;;;;24.31;57.96;95042.41;6098231;23;20183;-69
2023/07/19 00:13:02;;;;;;;6.75;5.18;;;;;;;24.24;58.19;95032.09;6098275;23;20223;-69
2023/07/19 00:15:31;;;;;;;6.32;5.72;;;;;;;24.18;58.17;95035.88;6098404;23;20190;-69
2023/07/19 00:18:01;;;;;;;6.32;5.72;;;;;;;24.17;57.91;95037.13;6098844;23;20200;-69
2023/07/19 00:20:29;;;;;;;6.38;5.28;;;;;;;24.14;57.96;95035.19;6098561;23;20172;-69
2023/07/19 00:23:00;;;;;;;6.63;5.93;;;;;;;24.12;58.21;95034.84;6099118;23;20471;-69
2023/07/19 00:25:29;;;;;;;5.90;5.30;;;;;;;24.08;58.34;95028.53;6098222;23;20577;-69
2023/07/19 00:28:01;;;;;;;6.03;5.30;;;;;;;24.04;58.18;95039.88;6074758;23;20172;-69
2023/07/19 00:30:31;;;;;;;6.20;5.60;;;;;;;23.97;58.71;95035.22;6110975;23;20231;-69
2023/07/19 00:32:59;;;;;;;6.15;4.95;;;;;;;23.97;59.01;95040.06;6099860;23;20272;-69
2023/07/19 00:35:30;;;;;;;5.45;4.95;;;;;;;24.00;58.79;95033.53;6101334;23;20176;-69
2023/07/19 00:37:59;;;;;;;5.97;5.47;;;;;;;24.00;59.08;95036.34;6100587;23;20462;-69
2023/07/19 00:40:27;;;;;;;6.88;5.75;;;;;;;23.98;58.97;95041.66;6100149;23;20180;-69
2023/07/19 00:43:01;;;;;;;5.82;5.32;;;;;;;23.94;59.27;95046.56;6099768;23;20192;-69
2023/07/19 00:45:29;;;;;;;6.25;5.50;;;;;;;23.89;58.71;95042.25;6103754;23;20176;-69
2023/07/19 00:47:58;;;;;;;5.95;5.35;;;;;;;23.83;59.10;95043.25;6100334;23;20173;-69
2023/07/19 00:50:26;;;;;;;6.55;5.93;;;;;;;23.75;58.80;95046.22;6100513;23;20247;-69
2023/07/19 00:52:55;;;;;;;7.40;6.07;;;;;;;23.68;58.36;95037.16;6124602;23;20184;-69
2023/07/19 00:55:24;;;;;;;6.45;5.85;;;;;;;23.65;58.63;95040.81;6099830;23;20636;-69
2023/07/19 00:57:52;;;;;;;7.55;5.90;;;;;;;23.65;59.08;95032.38;6100346;23;20172;-69
2023/07/19 01:00:27;;;;;;;5.90;5.30;;;;;;;23.63;59.05;95049.69;6101224;23;20197;-68
2023/07/19 01:02:55;;;;;;;7.40;5.38;;;;;;;23.63;58.79;95041.25;6101155;23;20545;-68
2023/07/19 01:05:23;;;;;;;7.40;5.85;;;;;;;23.60;59.15;95044.16;6101309;23;20176;-69
2023/07/19 01:07:54;;;;;;;6.55;5.72;;;;;;;23.53;59.14;95045.91;6101315;23;20164;-69
2023/07/19 01:10:23;;;;;;;6.40;5.78;;;;;;;23.47;59.45;95052.50;6101268;23;20171;-69
2023/07/19 01:13:02;;;;;;;6.32;5.72;;;;;;;23.46;59.46;95036.84;6099901;23;20224;-69
2023/07/19 01:15:35;;;;;;;6.30;5.70;;;;;;;23.45;59.40;95036.03;6100692;23;20177;-69
2023/07/19 01:18:06;;;;;;;5.78;5.18;;;;;;;23.47;59.65;95039.22;6100023;23;20570;-69
2023/07/19 01:20:37;;;;;;;6.28;5.38;;;;;;;23.48;59.35;95035.16;6076075;23;20294;-69
2023/07/19 01:23:11;;;;;;;6.45;5.75;;;;;;;23.44;59.36;95031.63;6124385;23;20176;-69
2023/07/19 01:25:42;;;;;;;6.32;5.50;;;;;;;23.47;59.79;95038.44;6100377;23;20172;-69
2023/07/19 01:28:12;;;;;;;6.78;5.70;;;;;;;23.49;59.82;95033.13;6099877;23;20250;-69
2023/07/19 01:30:42;;;;;;;5.40;4.90;;;;;;;23.48;59.59;95040.78;6101150;23;20160;-68
2023/07/19 01:33:10;;;;;;;6.25;5.72;;;;;;;23.45;59.91;95047.28;6099358;23;20208;-68
2023/07/19 01:35:37;;;;;;;5.65;5.15;;;;;;;23.44;60.23;95033.66;6124831;23;20180;-68
2023/07/19 01:38:08;;;;;;;6.38;5.60;;;;;;;23.42;59.99;95028.50;6110570;23;20188;-68
2023/07/19 01:40:39;;;;;;;6.35;5.75;;;;;;;23.41;60.42;95028.91;6100358;23;20164;-69
2023/07/19 01:43:07;;;;;;;6.63;5.70;;;;;;;23.41;60.56;95035.31;6099465;23;20220;-69
2023/07/19 01:45:37;;;;;;;6.18;5.60;;;;;;;23.36;60.69;95029.44;6099708;23;20188;-69
2023/07/19 01:48:06;;;;;;;5.22;4.82;;;;;;;23.29;60.64;95038.84;6100863;23;20161;-69
2023/07/19 01:50:34;;;;;;;6.22;5.38;;;;;;;23.28;60.61;95040.06;6099809;23;20175;-68
2023/07/19 01:53:01;;;;;;;6.68;5.65;;;;;;;23.24;60.55;95039.31;6099566;23;20176;-68
2023/07/19 01:55:31;;;;;;;5.35;4.85;;;;;;;23.20;60.85;95033.81;6100747;23;20161;-68
2023/07/19 01:57:58;;;;;;;5.80;5.30;;;;;;;23.20;60.73;95035.81;6110157;23;20172;-69
2023/07/19 02:00:26;;;;;;;5.72;5.22;;;;;;;23.16;60.82;95035.09;6099918;23;20199;-69
2023/07/19 02:02:53;;;;;;;5.78;5.25;;;;;;;23.12;60.79;95043.63;6100747;23;20164;-69
2023/07/19 02:05:21;;;;;;;5.68;4.72;;;;;;;23.14;60.63;95031.94;6100854;23;20156;-69
2023/07/19 02:07:50;;;;;;;5.63;5.13;;;;;;;23.13;61.09;95035.97;6099617;23;20191;-68
2023/07/19 02:10:17;;;;;;;6.07;5.22;;;;;;;23.11;60.93;95027.97;6099511;23;20219;-68
2023/07/19 02:12:45;;;;;;;8.20;5.30;;;;;;;23.09;61.37;95021.19;6099165;23;20173;-68
2023/07/19 02:15:13;;;;;;;5.95;5.28;;;;;;;23.06;61.17;95014.44;6101047;23;20220;-68
2023/07/19 02:17:43;;;;;;;5.93;5.32;;;;;;;23.03;61.47;95012.50;6100562;23;20164;-68
2023/07/19 02:20:14;;;;;;;5.60;5.10;;;;;;;22.98;61.51;95005.34;6100607;23;20180;-69
2023/07/19 02:22:42;;;;;;;7.15;5.50;;;;;;;22.90;61.15;95003.09;6100371;23;20179;-68
2023/07/19 02:25:09;;;;;;;6.68;5.18;;;;;;;22.82;61.83;95011.69;6100304;23;20223;-68
2023/07/19 02:27:37;;;;;;;7.03;5.40;;;;;;;22.82;61.94;95006.06;6123743;23;20596;-68
2023/07/19 02:30:13;;;;;;;5.85;5.18;;;;;;;22.86;61.53;94999.56;6124186;23;20236;-68
2023/07/19 02:32:43;;;;;;;6.05;5.40;;;;;;;22.85;61.50;95003.63;6098970;23;20211;-68
2023/07/19 02:35:13;;;;;;;6.15;5.45;;;;;;;22.79;61.89;95004.09;6123346;23;20200;-68
2023/07/19 02:37:43;;;;;;;6.38;5.47;;;;;;;22.77;62.16;95002.97;6100348;23;20176;-68
2023/07/19 02:40:11;;;;;;;6.32;5.82;;;;;;;22.68;62.01;94994.31;6099229;23;20193;-68
2023/07/19 02:42:41;;;;;;;6.20;5.70;;;;;;;22.61;61.73;94995.25;6109685;23;20175;-68
2023/07/19 02:45:13;;;;;;;6.30;5.40;;;;;;;22.58;61.81;94996.91;6098889;23;20214;-68
2023/07/19 02:47:44;;;;;;;6.45;5.40;;;;;;;22.56;62.04;94998.59;6099290;23;20173;-68
2023/07/19 02:50:14;;;;;;;5.38;4.88;;;;;;;22.57;62.07;94997.34;6109672;23;20179;-68
2023/07/19 02:52:42;;;;;;;6.05;5.45;;;;;;;22.62;61.38;94996.84;6098849;23;20173;-68
2023/07/19 02:55:09;;;;;;;5.93;5.28;;;;;;;22.62;61.25;94996.03;6109617;23;20429;-69
2023/07/19 02:57:40;;;;;;;6.97;5.30;;;;;;;22.61;61.29;95000.09;6099797;23;20172;-69
2023/07/19 03:00:14;;;;;;;6.22;5.47;;;;;;;22.63;60.99;94995.63;6099310;23;20189;-69
2023/07/19 03:02:53;;;;;;;5.35;4.90;;;;;;;22.67;61.00;95001.97;6109559;23;20557;-69
2023/07/19 03:05:21;;;;;;;6.18;4.80;;;;;;;22.71;61.46;94994.25;6099942;23;20169;-69
2023/07/19 03:07:49;;;;;;;5.55;5.05;;;;;;;22.71;61.08;95005.50;6100110;23;20176;-69
2023/07/19 03:10:16;;;;;;;5.53;5.03;;;;;;;22.72;61.01;95000.66;6099061;23;20176;-69
2023/07/19 03:12:44;;;;;;;5.60;5.00;;;;;;;22.64;60.38;94994.41;6099909;23;20247;-69
2023/07/19 03:15:12;;;;;;;5.40;4.90;;;;;;;22.61;60.35;95000.88;6099977;23;20161;-69
2023/07/19 03:17:43;;;;;;;8.18;5.07;;;;;;;22.64;60.53;94997.22;6109457;23;20157;-69
2023/07/19 03:20:16;;;;;;;5.60;5.10;;;;;;;22.65;59.60;94995.19;6099917;23;20185;-69
2023/07/19 03:22:45;;;;;;;5.70;5.20;;;;;;;22.65;60.48;94995.97;6098785;23;20176;-69
2023/07/19 03:25:13;;;;;;;5.90;5.30;;;;;;;22.66;60.15;94994.75;6099814;23;20589;-69
2023/07/19 03:27:40;;;;;;;6.68;5.90;;;;;;;22.69;60.45;94993.88;6123616;23;20169;-69
2023/07/19 03:30:09;;;;;;;6.30;5.70;;;;;;;22.70;60.63;94992.66;6098829;23;20180;-69
2023/07/19 03:32:38;;;;;;;7.05;6.30;;;;;;;22.70;60.65;94986.25;6109116;23;20200;-69
2023/07/19 03:35:10;;;;;;;7.13;6.43;;;;;;;22.64;60.50;94983.16;6109492;23;20179;-69
2023/07/19 03:37:46;;;;;;;5.93;5.43;;;;;;;22.59;60.45;94984.47;6109190;23;20200;-68
2023/07/19 03:40:15;;;;;;;6.68;5.95;;;;;;;22.59;61.08;94978.84;6099770;23;20185;-68
2023/07/19 03:42:45;;;;;;;6.50;5.90;;;;;;;22.52;61.16;94978.19;6099677;23;20156;-68
2023/07/19 03:45:13;;;;;;;6.00;5.40;;;;;;;22.50;61.74;94977.81;6099314;23;20198;-68
2023/07/19 03:47:43;;;;;;;7.90;5.95;;;;;;;22.49;61.29;94971.41;6098767;23;20169;-68
2023/07/19 03:50:11;;;;;;;6.35;5.85;;;;;;;22.43;61.47;94961.91;6099751;23;20535;-68
2023/07/19 03:52:44;;;;;;;10.90;5.85;;;;;;;22.39;61.82;94966.00;6099724;23;20186;-68
2023/07/19 03:55:13;;;;;;;7.90;5.68;;;;;;;22.40;62.11;94961.97;6099366;23;20566;-68
2023/07/19 03:57:42;;;;;;;7.57;5.93;;;;;;;22.36;62.17;94959.22;6099778;23;20165;-70
2023/07/19 04:00:13;;;;;;;6.13;5.60;;;;;;;22.37;62.37;94965.63;6123111;23;20192;-69
2023/07/19 04:02:42;;;;;;;6.70;5.90;;;;;;;22.44;62.68;94965.50;6099189;23;20609;-68
2023/07/19 04:05:11;;;;;;;7.85;6.22;;;;;;;22.49;62.86;94976.25;6099962;23;20164;-70
2023/07/19 04:07:40;;;;;;;10.15;6.25;;;;;;;22.50;62.48;94978.63;6099102;23;20191;-72
2023/07/19 04:10:10;;;;;;;8.73;5.95;;;;;;;22.51;63.00;94973.78;6099933;23;20157;-67
2023/07/19 04:12:37;;;;;;;9.75;6.38;;;;;;;22.54;63.35;94968.09;6098659;23;20606;-68
2023/07/19 04:15:14;;;;;;;6.80;5.95;;;;;;;22.53;63.31;94969.31;6100475;23;20172;-69
2023/07/19 04:17:45;;;;;;;9.38;6.00;;;;;;;22.53;63.59;94960.09;6125664;23;20168;-69
2023/07/19 04:20:12;;;;;;;7.32;6.60;;;;;;;22.55;63.61;94954.84;6101931;23;20184;-68
2023/07/19 04:22:40;;;;;;;13.38;6.93;;;;;;;22.56;63.50;94959.25;6110325;23;20629;-69
2023/07/19 04:25:11;;;;;;;7.32;6.63;;;;;;;22.57;62.91;94961.59;6109941;23;20612;-68
2023/07/19 04:27:39;;;;;;;7.75;6.85;;;;;;;22.59;62.46;94961.97;6100144;23;20172;-75
2023/07/19 04:30:07;;;;;;;6.80;6.20;;;;;;;22.61;62.89;94953.09;6099626;23;20177;-70
2023/07/19 04:32:36;;;;;;;8.68;6.43;;;;;;;22.65;62.93;94955.81;6099792;23;20268;-72
2023/07/19 04:35:07;;;;;;;8.95;6.97;;;;;;;22.67;62.51;94956.19;6099048;23;20165;-72
2023/07/19 04:37:38;;;;;;;10.75;6.60;;;;;;;22.73;63.10;94952.44;6099493;23;20223;-72
2023/07/19 04:40:07;;;;;;;11.27;6.90;;;;;;;22.78;63.15;94956.75;6098969;23;20203;-71
2023/07/19 04:42:38;;;;;;;7.60;6.80;;;;;;;22.81;62.55;94958.72;6099068;23;20177;-70
2023/07/19 04:45:07;;;;;;;9.00;6.82;;;;;;;22.84;61.86;94955.03;6098920;23;20164;-71
2023/07/19 04:47:36;;;;;;;7.38;6.68;;;;;;;22.88;62.04;94957.75;6099124;23;20519;-71
2023/07/19 04:50:05;;;;;;;6.85;6.25;;;;;;;22.92;61.69;94956.47;6099569;23;20164;-71
2023/07/19 04:52:32;;;;;;;7.90;7.10;;;;;;;22.99;62.46;94955.53;6123704;23;20187;-72
2023/07/19 04:55:02;;;;;;;7.10;6.38;;;;;;;23.02;62.46;94963.06;6099826;23;20229;-70
2023/07/19 04:57:30;;;;;;;7.00;6.30;;;;;;;23.03;61.97;94959.84;6099947;23;20161;-70
2023/07/19 05:00:04;;;;;;;8.65;6.78;;;;;;;23.10;61.88;94969.34;6122929;23;20263;-70
2023/07/19 05:02:31;;;;;;;9.45;7.05;;;;;;;23.12;62.58;94966.88;6109858;23;20187;-69
2023/07/19 05:04:58;;;;;;;7.50;6.40;;;;;;;23.16;62.42;94973.22;6098384;23;20188;-69
2023/07/19 05:07:26;;;;;;;7.78;7.00;;;;;;;23.21;62.76;94972.72;6098615;23;20187;-69
2023/07/19 05:09:53;;;;;;;7.63;6.70;;;;;;;23.22;62.21;94977.09;6099471;23;20165;-69
2023/07/19 05:12:24;;;;;;;9.05;7.60;;;;;;;23.24;61.92;94969.00;6098324;23;20173;-70
2023/07/19 05:14:52;;;;;;;9.25;7.32;;;;;;;23.26;61.88;94972.16;6099212;23;20212;-70
2023/07/19 05:17:21;;;;;;;8.75;7.10;;;;;;;23.25;62.09;94967.78;6101651;23;20165;-70
2023/07/19 05:19:50;;;;;;;10.57;6.80;;;;;;;23.20;62.53;94957.84;6099960;23;20200;-70
2023/07/19 05:22:21;;;;;;;11.93;7.70;;;;;;;23.19;61.51;94961.09;6099810;23;20601;-70
2023/07/19 05:24:54;;;;;;;9.10;7.88;;;;;;;23.21;61.55;94953.00;6101115;23;20165;-70
2023/07/19 05:27:20;;;;;;;9.90;7.88;;;;;;;23.25;61.79;94954.50;6100536;23;20210;-70
2023/07/19 05:29:51;;;;;;;11.52;7.68;;;;;;;23.31;61.30;94951.94;6100751;23;20157;-70
2023/07/19 05:32:17;;;;;;;8.27;6.97;;;;;;;23.34;60.93;94948.25;6110568;23;20259;-71
2023/07/19 05:34:51;;;;;;;8.43;7.57;;;;;;;23.37;60.78;94947.38;6110433;23;20172;-71
2023/07/19 05:37:19;;;;;;;11.25;7.28;;;;;;;23.40;61.28;94952.13;6110565;23;20169;-70
2023/07/19 05:39:51;;;;;;;8.40;7.57;;;;;;;23.39;61.15;94950.56;6110263;23;20203;-70
2023/07/19 05:42:17;;;;;;;7.90;7.10;;;;;;;23.41;61.53;94948.09;6099932;23;20176;-70
2023/07/19 05:44:44;;;;;;;10.85;7.47;;;;;;;23.45;62.22;94942.38;6099849;23;20176;-70
2023/07/19 05:47:12;;;;;;;9.50;7.85;;;;;;;23.47;61.92;94940.69;6100979;23;20190;-70
2023/07/19 05:49:42;;;;;;;12.00;7.78;;;;;;;23.51;60.60;94941.41;6110548;23;20181;-76
2023/07/19 05:52:10;;;;;;;11.93;8.65;;;;;;;23.57;60.23;94940.84;6101026;23;20165;-71
2023/07/19 05:54:39;;;;;;;8.90;7.28;;;;;;;23.63;60.34;94939.09;6101016;23;20175;-70
2023/07/19 05:57:07;;;;;;;9.15;7.40;;;;;;;23.70;60.80;94936.94;6101071;23;20160;-70
2023/07/19 05:59:34;;;;;;;9.02;7.60;;;;;;;23.72;60.52;94937.28;6100937;23;20176;-70
2023/07/19 06:02:03;;;;;;;9.48;8.57;;;;;;;23.77;60.06;94939.56;6100943;23;20176;-70
2023/07/19 06:04:31;;;;;;;8.82;7.93;;;;;;;23.86;60.38;94938.16;6100060;23;20169;-71
2023/07/19 06:06:59;;;;;;;12.90;8.30;;;;;;;23.89;59.77;94940.06;6100608;23;20239;-70
2023/07/19 06:09:30;;;;;;;10.70;8.55;;;;;;;23.88;59.88;94953.38;6099424;23;20180;-70
2023/07/19 06:11:57;;;;;;;8.68;7.75;;;;;;;23.89;60.00;94951.34;6110049;23;20168;-72
2023/07/19 06:14:28;;;;;;;12.43;8.35;;;;;;;23.99;60.15;94951.06;6110602;23;20581;-70
2023/07/19 06:16:56;;;;;;;9.68;7.78;;;;;;;24.05;59.91;94945.69;6110297;23;20191;-70
2023/07/19 06:19:26;;;;;;;9.93;8.23;;;;;;;24.06;60.48;94955.72;6099726;23;20251;-70
2023/07/19 06:21:54;;;;;;;10.43;8.40;;;;;;;24.06;59.65;94944.44;6099377;23;20188;-70
2023/07/19 06:24:24;;;;;;;9.75;8.75;;;;;;;24.07;59.78;94943.19;6100343;23;20172;-70
2023/07/19 06:26:59;;;;;;;11.10;8.73;;;;;;;24.10;59.40;94944.34;6099738;23;20176;-70
2023/07/19 06:29:29;;;;;;;11.27;8.43;;;;;;;24.09;60.63;94935.09;6099536;23;20180;-70
2023/07/19 06:31:57;;;;;;;10.27;8.27;;;;;;;24.08;60.96;94944.78;6099914;23;20539;-70
2023/07/19 06:34:25;;;;;;;9.73;7.90;;;;;;;24.06;60.66;94941.63;6100404;23;20172;-70
2023/07/19 06:36:55;;;;;;;11.55;8.20;;;;;;;24.07;60.03;94931.94;6100343;23;20184;-70
2023/07/19 06:39:23;;;;;;;9.13;8.23;;;;;;;24.08;59.80;94929.94;6100526;23;20565;-75
2023/07/19 06:41:55;;;;;;;11.60;8.90;;;;;;;24.11;60.20;94929.81;6098950;23;20196;-71
2023/07/19 06:44:24;;;;;;;8.98;8.18;;;;;;;24.17;59.97;94933.66;6100053;23;20157;-71
2023/07/19 06:46:52;;;;;;;9.10;7.43;;;;;;;24.27;59.59;94935.41;6098977;23;20557;-71
2023/07/19 06:49:20;;;;;;;8.98;7.13;;;;;;;24.45;59.92;94934.94;6100507;23;20160;-72
2023/07/19 06:51:48;;;;;;;10.80;7.25;;;;;;;24.58;59.49;94946.22;6098880;23;20235;-71
2023/07/19 06:54:16;;;;;;;8.20;7.43;;;;;;;24.71;58.82;94934.97;6100160;23;20226;-71
2023/07/19 06:56:45;;;;;;;9.43;7.85;;;;;;;24.79;58.66;94936.34;6099035;23;20237;-71
2023/07/19 06:59:19;;;;;;;9.57;7.00;;;;;;;24.87;58.20;94946.16;6100474;23;20458;-71
2023/07/19 07:01:50;;;;;;;7.90;6.65;;;;;;;24.85;58.32;94940.19;6123325;23;20192;-71
2023/07/19 07:04:19;;;;;;;8.98;8.07;;;;;;;24.87;58.57;94932.06;6099125;23;20172;-71
2023/07/19 07:06:46;;;;;;;7.30;6.60;;;;;;;24.89;58.50;94943.69;6098819;23;20174;-71
2023/07/19 07:09:15;;;;;;;8.20;6.93;;;;;;;24.91;57.81;94937.59;6121916;23;20184;-71
2023/07/19 07:11:45;;;;;;;9.02;6.65;;;;;;;24.90;57.67;94945.28;6099462;23;20172;-71
2023/07/19 07:14:22;;;;;;;6.95;6.25;;;;;;;24.89;56.91;94942.91;6099550;23;20598;-71
2023/07/19 07:16:50;;;;;;;6.95;6.35;;;;;;;24.96;57.70;94943.47;6099470;23;20477;-71
2023/07/19 07:19:18;;;;;;;7.07;6.03;;;;;;;25.12;57.92;94934.16;6099174;23;20188;-73
2023/07/19 07:21:45;;;;;;;7.00;6.30;;;;;;;25.22;56.72;94937.88;6098817;23;20200;-71
2023/07/19 07:24:12;;;;;;;7.65;6.97;;;;;;;25.18;56.40;94926.69;6099539;23;20172;-71
2023/07/19 07:26:43;;;;;;;6.60;6.10;;;;;;;25.13;55.06;94930.09;6098925;23;20173;-70
2023/07/19 07:29:12;;;;;;;6.82;6.10;;;;;;;25.12;56.08;94933.34;6099925;23;20180;-69
2023/07/19 07:31:47;;;;;;;6.70;6.07;;;;;;;25.18;57.20;94925.91;6099887;23;20157;-70
2023/07/19 07:34:20;;;;;;;8.30;6.78;;;;;;;25.32;56.93;94928.28;6109598;23;20149;-69
2023/07/19 07:36:48;;;;;;;7.95;7.13;;;;;;;25.31;54.70;94921.06;6099714;23;20161;-69
2023/07/19 07:39:16;;;;;;;7.57;6.55;;;;;;;25.35;55.96;94918.91;6100278;23;20157;-69
2023/07/19 07:41:43;;;;;;;10.20;6.13;;;;;;;25.42;56.47;94915.06;6099659;23;20188;-69
2023/07/19 07:44:11;;;;;;;8.15;6.15;;;;;;;25.51;55.90;94914.38;6099801;23;20164;-69
2023/07/19 07:46:38;;;;;;;7.50;6.38;;;;;;;25.57;56.02;94907.69;6098525;23;20243;-70
2023/07/19 07:49:08;;;;;;;8.30;6.70;;;;;;;25.63;55.67;94905.06;6123074;23;20168;-71
2023/07/19 07:51:35;;;;;;;6.70;5.85;;;;;;;25.66;55.90;94895.69;6099496;23;20236;-71
2023/07/19 07:54:06;;;;;;;9.15;6.07;;;;;;;25.74;56.57;94888.56;6109329;23;20167;-70
2023/07/19 07:56:36;;;;;;;8.30;5.78;;;;;;;25.83;56.49;94888.69;6099650;23;20161;-70
2023/07/19 07:59:04;;;;;;;10.27;6.50;;;;;;;25.86;56.18;94887.78;6098583;23;20200;-70
2023/07/19 08:01:31;;;;;;;6.90;5.85;;;;;;;25.82;56.23;94877.84;6105717;23;20196;-70
2023/07/19 08:04:02;;;;;;;7.60;6.82;;;;;;;25.74;56.10;94893.41;6099577;23;20183;-71
2023/07/19 08:06:35;;;;;;;8.55;6.43;;;;;;;25.70;56.35;94890.72;6098742;23;20176;-70
2023/07/19 08:09:03;;;;;;;9.18;6.65;;;;;;;25.65;56.41;94883.63;6108950;23;20180;-70
2023/07/19 08:11:32;;;;;;;6.57;5.95;;;;;;;25.63;57.00;94886.09;6099409;23;20176;-69
2023/07/19 08:14:00;;;;;;;6.93;6.32;;;;;;;25.64;56.36;94882.03;6098963;23;20179;-69
2023/07/19 08:16:27;;;;;;;6.90;6.25;;;;;;;25.66;56.61;94873.88;6098642;23;20180;-69
2023/07/19 08:18:55;;;;;;;8.15;6.75;;;;;;;25.66;56.50;94876.72;6109063;23;20561;-69
2023/07/19 08:21:25;;;;;;;8.13;6.32;;;;;;;25.71;57.14;94869.72;6099173;23;20196;-70
2023/07/19 08:23:57;;;;;;;7.57;6.35;;;;;;;25.76;57.60;94882.47;6109123;23;20176;-69
2023/07/19 08:26:27;;;;;;;8.82;6.97;;;;;;;25.82;57.27;94875.81;6098319;23;20169;-69
2023/07/19 08:28:56;;;;;;;7.13;6.53;;;;;;;25.83;56.91;94882.25;6098230;23;20181;-69
2023/07/19 08:31:24;;;;;;;7.60;6.78;;;;;;;25.83;56.52;94879.41;6100116;23;20161;-69
2023/07/19 08:33:53;;;;;;;8.77;6.68;;;;;;;25.88;57.04;94873.19;6109046;23;20204;-70
2023/07/19 08:36:23;;;;;;;7.10;6.18;;;;;;;25.90;56.73;94873.53;6098261;23;20177;-70
2023/07/19 08:38:54;;;;;;;9.23;8.27;;;;;;;25.96;56.92;94876.53;6099453;23;20161;-69
2023/07/19 08:41:24;;;;;;;7.00;6.28;;;;;;;25.99;56.95;94865.09;6099514;23;20268;-70
2023/07/19 08:43:55;;;;;;;6.90;6.20;;;;;;;26.03;56.28;94865.75;6099647;23;20171;-69
2023/07/19 08:46:24;;;;;;;7.13;6.13;;;;;;;26.10;56.09;94854.19;6098515;23;20176;-69
2023/07/19 08:48:55;;;;;;;7.10;6.45;;;;;;;26.24;56.44;94852.09;6099782;23;20160;-69
2023/07/19 08:51:25;;;;;;;7.25;6.60;;;;;;;26.28;57.23;94849.94;6101827;23;20157;-69
2023/07/19 08:53:56;;;;;;;7.05;6.40;;;;;;;26.32;57.18;94848.53;6111034;23;20169;-69
2023/07/19 08:56:31;;;;;;;6.78;6.13;;;;;;;26.40;55.99;94838.56;6101194;23;20219;-69
2023/07/19 08:58:59;;;;;;;6.85;6.22;;;;;;;26.55;56.04;94833.19;6100377;23;20176;-69
2023/07/19 09:01:26;;;;;;;7.18;6.38;;;;;;;26.57;55.88;94827.84;6100715;23;20257;-69
2023/07/19 09:03:54;;;;;;;11.60;6.38;;;;;;;26.59;55.92;94828.16;6100419;23;20173;-69
2023/07/19 09:06:24;;;;;;;7.00;6.43;;;;;;;26.76;57.81;94828.72;6100373;23;20177;-69
2023/07/19 09:08:52;;;;;;;7.88;7.00;;;;;;;26.81;55.27;94822.44;6101247;23;20228;-70
2023/07/19 09:11:20;;;;;;;7.88;5.93;;;;;;;26.95;58.17;94825.97;6111202;23;20179;-70
2023/07/19 09:14:01;;;;;;;7.00;6.40;;;;;;;27.08;55.46;94826.63;6100106;23;20176;-69
2023/07/19 09:16:29;;;;;;;8.00;6.60;;;;;;;27.04;55.01;94826.00;6100760;23;20524;-70
2023/07/19 09:18:59;;;;;;;7.78;6.50;;;;;;;27.03;54.20;94830.88;6101391;23;20169;-70
2023/07/19 09:21:35;;;;;;;9.10;7.35;;;;;;;27.12;54.79;94827.28;6124552;23;20479;-70
2023/07/19 09:24:04;;;;;;;8.57;6.88;;;;;;;27.13;54.42;94822.44;6100813;23;20156;-68
2023/07/19 09:26:45;;;;;;;7.05;6.20;;;;;;;27.22;55.62;94828.13;6100287;23;20172;-68
2023/07/19 09:29:13;;;;;;;8.38;6.10;;;;;;;27.24;54.15;94828.47;6100541;23;20168;-68
2023/07/19 09:35:26;;;;;;;7.60;6.72;;;;;;;27.83;55.60;94820.69;6124635;23;20223;-66
2023/07/19 09:38:12;;;;;;;7.00;6.30;;;;;;;27.98;48.28;94820.84;6130521;23;20175;-66
2023/07/19 09:40:57;;;;;;;7.15;6.10;;;;;;;27.95;51.89;94811.22;6130413;23;20234;-66
2023/07/19 09:43:24;;;;;;;7.85;7.05;;;;;;;27.93;53.77;94815.81;6130190;23;20438;-66
2023/07/19 09:45:52;;;;;;;7.10;6.43;;;;;;;28.01;51.20;94815.00;6139956;23;20673;-66
2023/07/19 09:48:20;;;;;;;8.10;6.65;;;;;;;28.01;49.71;94812.19;6130158;23;20171;-66
2023/07/19 09:50:49;;;;;;;8.02;6.68;;;;;;;28.14;44.23;94800.66;6129138;23;20180;-67
2023/07/19 09:53:16;;;;;;;11.57;6.28;;;;;;;28.30;44.23;94803.16;6128961;23;20186;-66
2023/07/19 09:55:45;;;;;;;7.22;6.20;;;;;;;28.45;41.57;94805.38;6130057;23;20172;-66
2023/07/19 09:58:13;;;;;;;6.68;6.03;;;;;;;28.55;44.08;94790.69;6129819;23;20160;-66
2023/07/19 10:00:40;;;;;;;8.48;6.55;;;;;;;28.64;43.83;94795.53;6129561;23;20164;-67
2023/07/19 10:03:09;;;;;;;7.85;7.05;;;;;;;28.78;42.09;94805.44;6139486;23;20194;-67
2023/07/19 10:05:36;;;;;;;8.05;7.22;;;;;;;28.85;41.43;94784.44;6128784;23;20172;-66
2023/07/19 10:08:04;;;;;;;7.15;6.50;;;;;;;28.95;41.18;94789.59;6129627;23;20575;-66
2023/07/19 10:10:39;;;;;;;7.65;6.85;;;;;;;28.98;43.64;94787.84;6129014;23;20172;-66
2023/07/19 10:13:06;;;;;;;7.15;6.45;;;;;;;28.97;42.74;94781.38;6130153;23;20226;-66
2023/07/19 10:15:34;;;;;;;7.68;6.88;;;;;;;28.99;41.32;94781.72;6128420;23;20237;-66
2023/07/19 10:18:02;;;;;;;8.95;7.63;;;;;;;29.22;40.98;94774.47;6128910;23;20182;-66
2023/07/19 10:20:32;;;;;;;7.90;6.97;;;;;;;29.36;41.75;94772.19;6139798;23;20168;-66
2023/07/19 10:23:01;;;;;;;10.20;7.72;;;;;;;29.51;38.56;94778.72;6139356;23;20203;-68
2023/07/19 10:25:29;;;;;;;7.90;7.10;;;;;;;29.67;37.72;94777.53;6128465;23;20179;-68
2023/07/19 10:28:01;;;;;;;7.43;6.53;;;;;;;29.78;39.89;94774.13;6129419;23;20576;-69
2023/07/19 10:30:50;;;;;;;9.13;7.82;;;;;;;29.82;41.08;94771.91;6129796;23;20164;-69
2023/07/19 10:33:21;;;;;;;8.63;7.03;;;;;;;29.86;39.82;94772.50;6128854;23;20438;-69
2023/07/19 10:35:51;;;;;;;8.02;7.13;;;;;;;30.02;39.27;94762.69;6130088;23;20231;-69
2023/07/19 10:38:19;;;;;;;7.95;7.20;;;;;;;30.04;40.71;94763.00;6128563;23;20182;-69
2023/07/19 10:40:52;;;;;;;8.25;7.50;;;;;;;30.09;40.32;94759.47;6129334;23;20160;-68
2023/07/19 10:43:19;;;;;;;9.68;7.18;;;;;;;30.20;38.38;94756.88;6129440;23;20188;-68
2023/07/19 10:45:45;;;;;;;7.75;7.10;;;;;;;30.42;35.91;94759.31;6129290;23;20176;-69
2023/07/19 10:48:13;;;;;;;7.82;6.95;;;;;;;30.40;39.12;94753.34;6128499;23;20179;-68
2023/07/19 10:50:40;;;;;;;6.70;6.10;;;;;;;30.43;34.85;94756.00;6129002;23;20254;-69
2023/07/19 10:53:08;;;;;;;6.90;6.22;;;;;;;30.38;38.57;94745.28;6128140;23;20172;-69
2023/07/19 10:55:35;;;;;;;6.60;6.07;;;;;;;30.37;35.83;94757.19;6128342;23;20186;-69
2023/07/19 10:58:02;;;;;;;7.65;6.43;;;;;;;30.40;37.40;94753.34;6129252;23;20568;-69
2023/07/19 11:00:29;;;;;;;7.72;6.25;;;;;;;30.61;35.23;94751.34;6129555;23;20184;-69
2023/07/19 11:02:56;;;;;;;6.53;5.90;;;;;;;30.72;36.96;94747.91;6138938;23;20187;-69
2023/07/19 11:05:24;;;;;;;6.03;5.50;;;;;;;30.75;35.19;94750.56;6129290;23;20202;-69
2023/07/19 11:07:51;;;;;;;7.07;6.38;;;;;;;30.64;36.67;94747.53;6128051;23;20176;-69
2023/07/19 11:10:20;;;;;;;6.57;6.07;;;;;;;30.56;37.71;94752.06;6129598;23;20242;-69
2023/07/19 11:12:47;;;;;;;6.20;5.70;;;;;;;30.62;35.05;94738.72;6129208;23;20156;-69
2023/07/19 11:15:14;;;;;;;6.05;5.47;;;;;;;30.77;34.07;94750.88;6128915;23;20164;-69
2023/07/19 11:17:41;;;;;;;6.45;5.85;;;;;;;31.00;34.59;94748.38;6128290;23;20172;-69
2023/07/19 11:20:09;;;;;;;6.05;5.43;;;;;;;31.14;32.90;94739.00;6139000;23;20552;-69
2023/07/19 11:22:36;;;;;;;6.60;6.00;;;;;;;31.23;33.51;94746.63;6138725;23;20184;-69
2023/07/19 11:25:10;;;;;;;5.93;5.43;;;;;;;31.29;34.78;94745.41;6129273;23;20160;-68
2023/07/19 11:27:39;;;;;;;5.88;5.22;;;;;;;31.40;35.15;94739.91;6129265;23;20178;-66
2023/07/19 11:30:07;;;;;;;7.00;6.30;;;;;;;31.47;33.79;94735.06;6128360;23;20168;-67
2023/07/19 11:32:34;;;;;;;5.80;5.30;;;;;;;31.37;33.63;94742.97;6129211;23;20167;-67
2023/07/19 11:35:01;;;;;;;5.72;5.30;;;;;;;31.10;35.00;94727.03;6128001;23;20214;-67
2023/07/19 11:37:30;;;;;;;7.00;5.60;;;;;;;30.79;38.14;94731.22;6129141;23;20160;-67
2023/07/19 11:39:58;;;;;;;6.15;5.65;;;;;;;30.48;39.46;94730.97;6129137;23;20172;-66
2023/07/19 11:42:45;;;;;;;5.55;5.05;;;;;;;30.44;36.52;94728.31;6128121;23;20242;-69
2023/07/19 11:45:15;;;;;;;6.15;5.65;;;;;;;30.49;36.06;94724.78;6138927;23;20160;-69